Aviation Digital Data Service (ADDS)

Output produced by TAFs form (1543 UTC 28 November 2014)
found at http://aviationweather.gov/adds/tafs/
 
KROW 281131Z 2812/2912 33005KT P6SM SCT250 
     FM281800 16006KT P6SM FEW250 
     FM290200 26005KT P6SM FEW250